sensor_id;sensor_type;location;lat;lon;timestamp;pressure;altitude;pressure_sealevel;temperature;humidity
69593;BME280;56796;50.122;14.468;2023-08-06T00:10:08;970.94;;;14.97;100
69593;BME280;56796;50.122;14.468;2023-08-06T00:29:34;970.68;;;14.91;100
69593;BME280;56796;50.122;14.468;2023-08-06T00:49:01;970.55;;;14.9;100
69593;BME280;56796;50.122;14.468;2023-08-06T01:08:30;970.31;;;14.85;100
69593;BME280;56796;50.122;14.468;2023-08-06T01:27:55;970.08;;;14.83;100
69593;BME280;56796;50.122;14.468;2023-08-06T01:47:25;970.17;;;14.77;100
69593;BME280;56796;50.122;14.468;2023-08-06T02:06:44;970.08;;;14.7;100
69593;BME280;56796;50.122;14.468;2023-08-06T02:26:10;970.05;;;14.7;100
69593;BME280;56796;50.122;14.468;2023-08-06T02:45:36;969.89;;;14.57;100
69593;BME280;56796;50.122;14.468;2023-08-06T03:05:03;969.73;;;14.54;100
69593;BME280;56796;50.122;14.468;2023-08-06T03:24:29;969.48;;;14.52;100
69593;BME280;56796;50.122;14.468;2023-08-06T03:43:56;969.26;;;14.5;100
69593;BME280;56796;50.122;14.468;2023-08-06T04:03:23;969.17;;;14.49;100
69593;BME280;56796;50.122;14.468;2023-08-06T04:22:54;968.83;;;14.43;100
69593;BME280;56796;50.122;14.468;2023-08-06T04:42:15;968.82;;;14.49;100
69593;BME280;56796;50.122;14.468;2023-08-06T05:01:35;968.61;;;14.64;100
69593;BME280;56796;50.122;14.468;2023-08-06T05:21:02;968.61;;;14.71;100
69593;BME280;56796;50.122;14.468;2023-08-06T05:40:30;968.49;;;14.88;100
69593;BME280;56796;50.122;14.468;2023-08-06T05:59:58;968.54;;;15.05;100
69593;BME280;56796;50.122;14.468;2023-08-06T06:19:25;968.46;;;15.2;100
69593;BME280;56796;50.122;14.468;2023-08-06T06:38:53;968.46;;;15.42;100
69593;BME280;56796;50.122;14.468;2023-08-06T06:58:21;968.44;;;15.79;100
69593;BME280;56796;50.122;14.468;2023-08-06T07:17:56;968.4;;;16.14;100
69593;BME280;56796;50.122;14.468;2023-08-06T07:37:10;968.27;;;16.46;100
69593;BME280;56796;50.122;14.468;2023-08-06T07:56:37;968.11;;;16.29;100
69593;BME280;56796;50.122;14.468;2023-08-06T08:16:04;967.92;;;16.54;100
69593;BME280;56796;50.122;14.468;2023-08-06T08:35:31;967.92;;;16.66;100
69593;BME280;56796;50.122;14.468;2023-08-06T08:54:58;967.88;;;16.79;100
69593;BME280;56796;50.122;14.468;2023-08-06T09:14:27;967.65;;;16.87;100
69593;BME280;56796;50.122;14.468;2023-08-06T09:33:53;967.65;;;16.96;97
69593;BME280;56796;50.122;14.468;2023-08-06T09:53:19;967.5;;;17.12;97.64
69593;BME280;56796;50.122;14.468;2023-08-06T10:12:48;967.44;;;17.37;96.38
69593;BME280;56796;50.122;14.468;2023-08-06T10:32:13;967.25;;;17.76;94.45
69593;BME280;56796;50.122;14.468;2023-08-06T10:51:42;967.18;;;17.74;91.5
69593;BME280;56796;50.122;14.468;2023-08-06T11:11:09;967.19;;;17.89;89.04
69593;BME280;56796;50.122;14.468;2023-08-06T11:30:36;967.26;;;17.42;87.94
69593;BME280;56796;50.122;14.468;2023-08-06T11:50:03;967.27;;;17.44;84.07
69593;BME280;56796;50.122;14.468;2023-08-06T12:09:29;967.23;;;18.49;84.99
69593;BME280;56796;50.122;14.468;2023-08-06T12:28:58;967.08;;;18.42;86.48
69593;BME280;56796;50.122;14.468;2023-08-06T12:48:23;967.16;;;17.79;87.6
69593;BME280;56796;50.122;14.468;2023-08-06T13:07:50;967.2;;;17.54;91.11
69593;BME280;56796;50.122;14.468;2023-08-06T13:27:17;967.13;;;18.64;90.04
69593;BME280;56796;50.122;14.468;2023-08-06T13:46:46;967.19;;;19.7;84.29
69593;BME280;56796;50.122;14.468;2023-08-06T14:06:17;967.22;;;19.99;78.14
69593;BME280;56796;50.122;14.468;2023-08-06T14:25:44;967.19;;;19.5;78.03
69593;BME280;56796;50.122;14.468;2023-08-06T14:45:11;967.17;;;19.95;77.98
69593;BME280;56796;50.122;14.468;2023-08-06T15:04:38;967.22;;;20.15;76.05
69593;BME280;56796;50.122;14.468;2023-08-06T15:24:04;967.31;;;19.37;78.4
69593;BME280;56796;50.122;14.468;2023-08-06T15:43:29;967.39;;;18.2;79.36
69593;BME280;56796;50.122;14.468;2023-08-06T16:02:54;967.17;;;18.9;83.88
69593;BME280;56796;50.122;14.468;2023-08-06T16:22:22;967.21;;;18.84;81.75
69593;BME280;56796;50.122;14.468;2023-08-06T16:41:49;967.26;;;18.45;80.83
69593;BME280;56796;50.122;14.468;2023-08-06T17:01:13;967.4;;;17.45;86.01
69593;BME280;56796;50.122;14.468;2023-08-06T17:20:40;967.23;;;16.35;92.78
69593;BME280;56796;50.122;14.468;2023-08-06T17:40:03;967.37;;;16.12;94.46
69593;BME280;56796;50.122;14.468;2023-08-06T17:59:26;967.37;;;16.03;97.47
69593;BME280;56796;50.122;14.468;2023-08-06T18:18:53;967.6;;;15.86;99.96
69593;BME280;56796;50.122;14.468;2023-08-06T18:38:19;967.75;;;15.73;100
69593;BME280;56796;50.122;14.468;2023-08-06T18:57:46;967.88;;;15.62;100
69593;BME280;56796;50.122;14.468;2023-08-06T19:17:12;967.89;;;15.45;100
69593;BME280;56796;50.122;14.468;2023-08-06T19:36:38;967.99;;;15.43;100
69593;BME280;56796;50.122;14.468;2023-08-06T19:56:04;967.97;;;15.36;99.81
69593;BME280;56796;50.122;14.468;2023-08-06T20:15:30;967.99;;;15.2;99.81
69593;BME280;56796;50.122;14.468;2023-08-06T20:34:58;968.21;;;15.11;99.11
69593;BME280;56796;50.122;14.468;2023-08-06T20:54:24;968.37;;;15;97.84
69593;BME280;56796;50.122;14.468;2023-08-06T21:13:51;968.4;;;14.89;95.85
69593;BME280;56796;50.122;14.468;2023-08-06T21:33:17;968.48;;;14.77;94.88
69593;BME280;56796;50.122;14.468;2023-08-06T21:52:44;968.68;;;14.72;93.92
69593;BME280;56796;50.122;14.468;2023-08-06T22:12:12;968.72;;;14.6;93.28
69593;BME280;56796;50.122;14.468;2023-08-06T22:31:38;968.62;;;14.45;93.63
69593;BME280;56796;50.122;14.468;2023-08-06T22:51:04;968.72;;;14.43;93.71
69593;BME280;56796;50.122;14.468;2023-08-06T23:10:30;968.73;;;14.16;96.42
69593;BME280;56796;50.122;14.468;2023-08-06T23:29:55;968.83;;;13.89;99.21
69593;BME280;56796;50.122;14.468;2023-08-06T23:49:21;968.62;;;13.46;100
